Leesburg, Virginia
Current Conditions -  °F | °C
As of 10:15 AM on Wednesday 26 Nov 2014 (Local Time) from KJYO Reporting Station
Light Snow Light Snow  
Wind Chill: 29°   Ceiling: 300
Heat Index: 34°   Visibility: 0.75mi
Dew Point: 34°   Wind: 6mph
Humidity: 100%   Direction: 10°N
Pressure: 30.08"   Gusts: NA
Location:  39.12°N, 77.56°W
Report Text: KJYO 261515Z AUTO 01005KT 3/4SM -SN BKN003 OVC008 01/01 A3008 RMK AO2
Loading
Personal Weather Stations






























Interactive Weather Map New forecast layout! Learn more

10-Day Weather Forecast

Advertisements
Track Severe Weather on mobile